Time;durP1;ratioP1;P1;durP2;ratioP2;P2;SDS_P1;SDS_P2;PMS_P1;PMS_P2;Temp;Humidity;BMP_temperature;BMP_pressure;BME280_temperature;BME280_humidity;BME280_pressure;Samples;Min_cycle;Max_cycle;Signal;HPM_P1;HPM_P2
2022/11/25 00:00:41;;;;;;;36.70;23.75;;;5.30;99.90;;;;;;2055857;28;20062;-70
2022/11/25 00:01:42;;;;;;;35.97;23.75;;;5.30;99.90;;;;;;2047727;28;20039;-70
2022/11/25 00:02:43;;;;;;;39.08;23.45;;;5.30;99.90;;;;;;2055856;28;20050;-71
2022/11/25 00:03:45;;;;;;;36.78;22.65;;;5.40;99.90;;;;;;2056243;28;20034;-70
2022/11/25 00:04:46;;;;;;;35.47;24.27;;;5.40;99.90;;;;;;2056887;28;20027;-70
2022/11/25 00:05:46;;;;;;;36.20;23.25;;;5.40;99.90;;;;;;2056316;28;20046;-71
2022/11/25 00:06:47;;;;;;;36.17;22.98;;;5.40;99.90;;;;;;2055868;28;20110;-70
2022/11/25 00:07:48;;;;;;;34.60;22.75;;;5.40;99.90;;;;;;2055972;28;20035;-71
2022/11/25 00:08:52;;;;;;;33.10;21.65;;;5.40;99.90;;;;;;2056188;28;20073;-69
2022/11/25 00:09:53;;;;;;;31.77;21.15;;;5.40;99.90;;;;;;2056404;28;20034;-70
2022/11/25 00:10:54;;;;;;;31.30;20.45;;;5.50;99.90;;;;;;2056779;28;20456;-73
2022/11/25 00:11:54;;;;;;;31.05;20.10;;;5.50;99.90;;;;;;2056399;28;20061;-72
2022/11/25 00:12:55;;;;;;;28.33;19.23;;;5.50;99.90;;;;;;2056531;28;20086;-72
2022/11/25 00:13:57;;;;;;;29.10;18.80;;;5.50;99.90;;;;;;2056457;28;20038;-72
2022/11/25 00:14:57;;;;;;;27.55;18.73;;;5.50;99.90;;;;;;2056606;28;20086;-72
2022/11/25 00:16:03;;;;;;;26.35;17.92;;;5.50;99.90;;;;;;2049132;28;20035;-71
2022/11/25 00:17:03;;;;;;;25.33;17.75;;;5.50;99.90;;;;;;2048793;29;20790;-72
2022/11/25 00:18:04;;;;;;;26.85;17.80;;;5.50;99.90;;;;;;2047938;28;20031;-70
2022/11/25 00:19:05;;;;;;;26.33;18.38;;;5.50;99.90;;;;;;2047418;28;20027;-72
2022/11/25 00:20:07;;;;;;;26.17;17.73;;;5.50;99.90;;;;;;2047749;28;20043;-70
2022/11/25 00:21:09;;;;;;;25.55;17.92;;;5.60;99.90;;;;;;2039688;29;20143;-72
2022/11/25 00:22:10;;;;;;;25.80;17.67;;;5.60;99.90;;;;;;2047779;29;20219;-72
2022/11/25 00:23:11;;;;;;;26.10;17.08;;;5.60;99.90;;;;;;2048180;28;20155;-72
2022/11/25 00:24:14;;;;;;;27.55;17.55;;;5.60;99.90;;;;;;2048392;29;20039;-72
2022/11/25 00:25:14;;;;;;;24.45;16.98;;;5.60;99.90;;;;;;2053960;28;20130;-71
2022/11/25 00:26:16;;;;;;;24.48;16.55;;;5.60;99.90;;;;;;2055492;28;20026;-69
2022/11/25 00:27:16;;;;;;;23.13;16.08;;;5.60;99.90;;;;;;2063700;28;20073;-70
2022/11/25 00:28:17;;;;;;;24.15;16.88;;;5.60;99.90;;;;;;2055681;28;20616;-69
2022/11/25 00:29:18;;;;;;;25.90;16.88;;;5.60;99.90;;;;;;2047160;28;20027;-70
2022/11/25 00:30:19;;;;;;;24.70;16.83;;;5.50;99.90;;;;;;2055605;28;20034;-69
2022/11/25 00:31:25;;;;;;;26.33;16.98;;;5.50;99.90;;;;;;2055498;28;20492;-70
2022/11/25 00:32:26;;;;;;;26.35;17.13;;;5.60;99.90;;;;;;2047539;28;20035;-69
2022/11/25 00:33:26;;;;;;;26.25;17.20;;;5.60;99.90;;;;;;2047505;29;20059;-69
2022/11/25 00:34:27;;;;;;;27.98;17.30;;;5.60;99.90;;;;;;2056085;28;20089;-70
2022/11/25 00:35:28;;;;;;;30.15;18.10;;;5.60;99.90;;;;;;2056154;28;20051;-70
2022/11/25 00:36:33;;;;;;;28.60;17.60;;;5.60;99.90;;;;;;2047376;29;20028;-70
2022/11/25 00:37:34;;;;;;;26.30;17.23;;;5.60;99.90;;;;;;2048382;28;20019;-70
2022/11/25 00:38:38;;;;;;;29.30;17.55;;;5.60;99.90;;;;;;2055456;28;20122;-70
2022/11/25 00:39:39;;;;;;;28.40;17.15;;;5.60;99.90;;;;;;2055277;28;20117;-70
2022/11/25 00:40:39;;;;;;;30.83;17.95;;;5.60;99.90;;;;;;2047825;28;20024;-70
2022/11/25 00:44:35;;;;;;;29.13;16.80;;;5.60;99.90;;;;;;2055941;28;20489;-71
2022/11/25 00:45:35;;;;;;;29.52;18.10;;;5.60;99.90;;;;;;2057448;28;20122;-71
2022/11/25 00:46:36;;;;;;;26.80;16.77;;;5.60;99.90;;;;;;2048794;28;20085;-71
2022/11/25 00:47:37;;;;;;;28.33;17.50;;;5.60;99.90;;;;;;2056954;28;20022;-71
2022/11/25 00:48:37;;;;;;;31.13;17.65;;;5.60;99.90;;;;;;2057042;28;20031;-70
2022/11/25 00:49:41;;;;;;;28.63;16.50;;;5.60;99.90;;;;;;2047578;29;20042;-70
2022/11/25 00:50:42;;;;;;;26.45;17.05;;;5.60;99.90;;;;;;2055695;28;20123;-70
2022/11/25 00:51:43;;;;;;;25.10;15.48;;;5.60;99.90;;;;;;2056371;28;20155;-70
2022/11/25 00:52:43;;;;;;;23.67;15.27;;;5.50;99.90;;;;;;2055580;28;20097;-70
2022/11/25 00:53:44;;;;;;;25.95;15.73;;;5.60;99.90;;;;;;2055733;28;20023;-71
2022/11/25 00:54:48;;;;;;;26.80;16.42;;;5.60;99.90;;;;;;2058179;28;20023;-71
2022/11/25 00:57:08;;;;;;;28.05;16.88;;;5.60;99.90;;;;;;2058437;28;20031;-71
2022/11/25 00:58:08;;;;;;;25.63;16.05;;;5.60;99.90;;;;;;2057195;28;20027;-71
2022/11/25 00:59:09;;;;;;;25.35;15.48;;;5.60;99.90;;;;;;2049002;28;20083;-71
2022/11/25 01:00:12;;;;;;;23.30;14.40;;;5.60;99.90;;;;;;2048649;28;20497;-71
2022/11/25 01:01:15;;;;;;;23.67;14.43;;;5.60;99.90;;;;;;2047759;28;20433;-71
2022/11/25 01:02:17;;;;;;;21.80;14.23;;;5.60;99.90;;;;;;2055773;28;20031;-71
2022/11/25 01:03:18;;;;;;;21.90;14.27;;;5.60;99.90;;;;;;2055909;28;20121;-71
2022/11/25 01:04:19;;;;;;;21.70;13.95;;;5.50;99.90;;;;;;2047803;28;20078;-71
2022/11/25 01:05:19;;;;;;;21.67;13.70;;;5.50;99.90;;;;;;2055664;28;20027;-71
2022/11/25 01:06:20;;;;;;;21.45;13.63;;;5.50;99.90;;;;;;2055717;28;20066;-71
2022/11/25 01:07:21;;;;;;;23.80;13.98;;;5.50;99.90;;;;;;2047725;28;20059;-70
2022/11/25 01:08:22;;;;;;;21.45;13.40;;;5.50;99.90;;;;;;2055350;28;20027;-70
2022/11/25 01:09:23;;;;;;;23.50;13.77;;;5.40;99.90;;;;;;2054910;28;20023;-70
2022/11/25 01:10:23;;;;;;;21.85;13.23;;;5.40;99.90;;;;;;2055315;28;20198;-69
2022/11/25 01:11:24;;;;;;;21.48;13.05;;;5.30;99.90;;;;;;2055947;28;20078;-69
2022/11/25 01:12:25;;;;;;;22.13;13.77;;;5.30;99.90;;;;;;2056003;28;20026;-69
2022/11/25 01:13:26;;;;;;;24.15;14.25;;;5.30;99.90;;;;;;2054774;28;20073;-69
2022/11/25 01:14:29;;;;;;;23.23;13.80;;;5.20;99.90;;;;;;2047815;29;20026;-69
2022/11/25 01:15:30;;;;;;;25.02;14.02;;;5.20;99.90;;;;;;2048013;28;20661;-70
2022/11/25 01:16:30;;;;;;;23.08;13.80;;;5.10;99.90;;;;;;2055255;28;20038;-70
2022/11/25 01:17:31;;;;;;;23.45;13.68;;;5.10;99.90;;;;;;2046994;28;20034;-71
2022/11/25 01:18:33;;;;;;;24.08;13.55;;;5.10;99.90;;;;;;2047329;29;20027;-70
2022/11/25 01:19:38;;;;;;;23.60;14.02;;;5.00;99.90;;;;;;2047097;28;20024;-70
2022/11/25 01:20:39;;;;;;;26.92;15.57;;;4.90;99.90;;;;;;2048000;28;20042;-70
2022/11/25 01:21:40;;;;;;;25.08;15.23;;;4.90;99.90;;;;;;2053526;28;20240;-70
2022/11/25 01:22:41;;;;;;;23.98;14.35;;;4.90;99.90;;;;;;2055483;28;20081;-71
2022/11/25 01:23:43;;;;;;;23.00;14.60;;;4.90;99.90;;;;;;2055977;28;20649;-70
2022/11/25 01:24:43;;;;;;;25.10;15.18;;;4.80;99.90;;;;;;2053829;28;20022;-70
2022/11/25 01:25:44;;;;;;;29.45;14.88;;;4.80;99.90;;;;;;2047425;28;20066;-70
2022/11/25 01:26:45;;;;;;;24.88;14.35;;;4.80;99.90;;;;;;2055157;28;20113;-70
2022/11/25 01:27:46;;;;;;;25.48;14.90;;;4.80;99.90;;;;;;2047323;28;20031;-69
2022/11/25 01:28:47;;;;;;;26.58;14.60;;;4.70;99.90;;;;;;2046962;29;20344;-70
2022/11/25 01:29:48;;;;;;;29.80;16.20;;;4.70;99.90;;;;;;2047186;29;20107;-70
2022/11/25 01:31:01;;;;;;;30.52;14.98;;;4.70;99.90;;;;;;2047208;29;20027;-70
2022/11/25 01:32:02;;;;;;;30.05;16.17;;;4.70;99.90;;;;;;2047110;28;20031;-70
2022/11/25 01:33:03;;;;;;;29.65;15.85;;;4.60;99.90;;;;;;2047089;29;20150;-70
2022/11/25 01:34:17;;;;;;;30.92;15.95;;;4.60;99.90;;;;;;2046996;28;20054;-70
2022/11/25 01:35:17;;;;;;;30.85;15.77;;;4.60;99.90;;;;;;2046853;29;20033;-70
2022/11/25 01:36:18;;;;;;;31.33;16.58;;;4.60;99.90;;;;;;2039201;29;20039;-70
2022/11/25 01:37:19;;;;;;;28.92;16.48;;;4.60;99.90;;;;;;2039149;29;20059;-70
2022/11/25 01:38:20;;;;;;;26.88;15.82;;;4.60;99.90;;;;;;2039149;29;20039;-70
2022/11/25 01:39:22;;;;;;;27.90;16.88;;;4.60;99.90;;;;;;2038943;29;20023;-70
2022/11/25 01:40:23;;;;;;;30.08;17.42;;;4.60;99.90;;;;;;2039076;29;20067;-70
2022/11/25 01:41:26;;;;;;;25.88;16.77;;;4.70;99.90;;;;;;2039020;29;20047;-70
2022/11/25 01:42:29;;;;;;;26.85;16.77;;;4.70;99.90;;;;;;2047090;29;20486;-71
2022/11/25 01:43:30;;;;;;;27.08;16.83;;;4.70;99.90;;;;;;2047650;28;20023;-70
2022/11/25 01:44:32;;;;;;;27.42;16.95;;;4.70;99.90;;;;;;2046798;29;20035;-72
2022/11/25 01:45:36;;;;;;;25.48;16.45;;;4.80;99.90;;;;;;2046985;28;20144;-70
2022/11/25 01:46:51;;;;;;;26.27;16.70;;;4.80;99.90;;;;;;2047108;29;20033;-72
2022/11/25 01:47:56;;;;;;;25.58;16.73;;;4.80;99.90;;;;;;2046795;29;20042;-70
2022/11/25 01:49:04;;;;;;;25.25;16.75;;;4.80;99.90;;;;;;2046993;29;20136;-71
2022/11/25 01:50:08;;;;;;;25.13;16.15;;;4.80;99.90;;;;;;2039003;29;20024;-71
2022/11/25 01:51:20;;;;;;;24.42;15.93;;;4.80;99.90;;;;;;2039567;29;20042;-72
2022/11/25 01:52:28;;;;;;;25.85;16.40;;;4.90;99.90;;;;;;2040675;28;20116;-70
2022/11/25 01:53:30;;;;;;;23.80;15.63;;;4.90;99.90;;;;;;2040144;29;20047;-71
2022/11/25 01:54:37;;;;;;;23.38;15.20;;;4.90;99.90;;;;;;2047456;28;20039;-71
2022/11/25 01:55:45;;;;;;;24.42;15.32;;;5.00;99.90;;;;;;2047211;29;20035;-72
2022/11/25 01:56:51;;;;;;;23.20;15.68;;;5.00;99.90;;;;;;2040172;29;20032;-72
2022/11/25 01:58:00;;;;;;;21.52;14.75;;;5.00;99.90;;;;;;2047019;28;20391;-72
2022/11/25 01:59:02;;;;;;;24.10;15.52;;;5.00;99.90;;;;;;2039857;29;20244;-72
2022/11/25 02:00:04;;;;;;;20.10;14.15;;;5.10;99.90;;;;;;2039428;29;20028;-72
2022/11/25 02:01:17;;;;;;;22.48;15.10;;;5.10;99.90;;;;;;2041238;29;20047;-72
2022/11/25 02:02:19;;;;;;;24.50;15.80;;;5.10;99.90;;;;;;2046983;29;20050;-72
2022/11/25 02:03:28;;;;;;;23.95;15.52;;;5.10;99.90;;;;;;2039102;29;20139;-72
2022/11/25 02:04:33;;;;;;;21.90;14.48;;;5.10;99.90;;;;;;2047210;29;20030;-72
2022/11/25 02:05:39;;;;;;;22.95;15.27;;;5.20;99.90;;;;;;2046699;29;20032;-72
2022/11/25 02:06:52;;;;;;;22.42;14.80;;;5.20;99.90;;;;;;2039284;29;20493;-72
2022/11/25 02:07:56;;;;;;;23.55;14.45;;;5.20;99.90;;;;;;2039131;29;20031;-72
2022/11/25 02:09:03;;;;;;;21.45;13.98;;;5.20;99.90;;;;;;2039272;29;20031;-71
2022/11/25 02:10:07;;;;;;;23.15;14.88;;;5.20;99.90;;;;;;2046986;28;20148;-74
2022/11/25 02:11:08;;;;;;;20.27;14.10;;;5.20;99.90;;;;;;2046937;29;20101;-72
2022/11/25 02:12:09;;;;;;;22.25;14.32;;;5.30;99.90;;;;;;2047121;29;20505;-70
2022/11/25 02:13:10;;;;;;;23.48;14.98;;;5.30;99.90;;;;;;2046810;29;20648;-70
2022/11/25 02:14:14;;;;;;;21.65;14.23;;;5.30;99.90;;;;;;2046738;28;20684;-70
2022/11/25 02:15:16;;;;;;;21.77;14.13;;;5.30;99.90;;;;;;2054731;28;20031;-70
2022/11/25 02:16:17;;;;;;;21.92;14.55;;;5.30;99.90;;;;;;2046873;28;20135;-70
2022/11/25 02:17:18;;;;;;;23.42;14.32;;;5.30;99.90;;;;;;2041654;28;20024;-70
2022/11/25 02:18:19;;;;;;;19.92;14.43;;;5.30;99.90;;;;;;2058446;28;20031;-70
2022/11/25 02:19:24;;;;;;;21.52;13.90;;;5.30;99.90;;;;;;2054977;28;20025;-70
2022/11/25 02:20:25;;;;;;;23.00;14.00;;;5.40;99.90;;;;;;2055487;28;20019;-70
2022/11/25 02:21:32;;;;;;;21.73;13.85;;;5.30;99.90;;;;;;2054577;28;20113;-70
2022/11/25 02:22:42;;;;;;;30.45;17.35;;;5.40;99.90;;;;;;2054904;28;20101;-71
2022/11/25 02:23:58;;;;;;;27.45;16.60;;;5.40;99.90;;;;;;2054807;28;20370;-72
2022/11/25 02:25:14;;;;;;;26.65;15.95;;;5.40;99.90;;;;;;2054722;28;20038;-71
2022/11/25 02:26:15;;;;;;;26.73;16.17;;;5.40;99.90;;;;;;2054598;28;20461;-71
2022/11/25 02:27:16;;;;;;;26.77;15.82;;;5.40;99.90;;;;;;2046532;28;20027;-71
2022/11/25 02:28:26;;;;;;;24.58;15.43;;;5.40;99.90;;;;;;2054670;28;20125;-71
2022/11/25 02:29:27;;;;;;;25.67;15.48;;;5.40;99.90;;;;;;2047459;28;20592;-71
2022/11/25 02:30:28;;;;;;;23.83;15.02;;;5.50;99.90;;;;;;2046581;28;20039;-71
2022/11/25 02:31:29;;;;;;;21.92;14.57;;;5.50;99.90;;;;;;2054581;28;20023;-70
2022/11/25 02:32:29;;;;;;;21.75;14.18;;;5.50;99.90;;;;;;2054667;28;20026;-70
2022/11/25 02:33:30;;;;;;;22.33;14.43;;;5.50;99.90;;;;;;2054724;28;20023;-70
2022/11/25 02:34:31;;;;;;;22.77;14.68;;;5.50;99.90;;;;;;2046645;28;20425;-70
2022/11/25 02:35:55;;;;;;;20.88;13.65;;;5.50;99.90;;;;;;2046737;28;20023;-70
2022/11/25 02:36:55;;;;;;;20.42;13.63;;;5.50;99.90;;;;;;2049535;28;20068;-70
2022/11/25 02:38:10;;;;;;;20.00;13.18;;;5.50;99.90;;;;;;2054664;28;20165;-70
2022/11/25 02:39:12;;;;;;;20.88;14.32;;;5.50;99.90;;;;;;2054397;28;20450;-70
2022/11/25 02:40:13;;;;;;;21.77;13.63;;;5.50;99.90;;;;;;2038806;28;20035;-70
2022/11/25 02:41:23;;;;;;;20.77;14.25;;;5.50;99.90;;;;;;2038664;28;20212;-70
2022/11/25 02:42:30;;;;;;;19.60;14.00;;;5.50;99.90;;;;;;2040658;29;20121;-70
2022/11/25 02:43:31;;;;;;;21.90;15.10;;;5.40;99.90;;;;;;2039440;28;20415;-72
2022/11/25 02:44:32;;;;;;;22.90;14.82;;;5.40;99.90;;;;;;2046375;28;20031;-72
2022/11/25 02:45:46;;;;;;;24.15;14.88;;;5.40;99.90;;;;;;2054619;28;20023;-72
2022/11/25 02:46:47;;;;;;;22.77;15.52;;;5.40;99.90;;;;;;2054523;28;20137;-71
2022/11/25 02:47:47;;;;;;;22.63;15.05;;;5.40;99.90;;;;;;2054537;28;20049;-72
2022/11/25 02:48:49;;;;;;;23.60;14.75;;;5.40;99.90;;;;;;2054154;28;20449;-72
2022/11/25 02:49:50;;;;;;;22.55;15.15;;;5.40;99.90;;;;;;2046574;28;20158;-72
2022/11/25 02:50:50;;;;;;;22.88;16.00;;;5.40;99.90;;;;;;2054660;28;20868;-71
2022/11/25 02:51:51;;;;;;;25.40;15.77;;;5.40;99.90;;;;;;2054363;28;20038;-72
2022/11/25 02:52:52;;;;;;;25.77;16.27;;;5.30;99.90;;;;;;2046559;29;20051;-72
2022/11/25 02:53:53;;;;;;;24.73;16.05;;;5.30;99.90;;;;;;2046460;28;20031;-72
2022/11/25 02:54:54;;;;;;;22.67;15.23;;;5.30;99.90;;;;;;2046601;28;20031;-72
2022/11/25 02:55:55;;;;;;;23.77;15.70;;;5.30;99.90;;;;;;2054825;28;20122;-72
2022/11/25 02:56:56;;;;;;;21.85;15.13;;;5.30;99.90;;;;;;2054569;28;20094;-72
2022/11/25 02:57:56;;;;;;;21.77;14.40;;;5.30;99.90;;;;;;2054568;28;20026;-72
2022/11/25 02:58:58;;;;;;;21.23;14.48;;;5.20;99.90;;;;;;2055010;28;20141;-72
2022/11/25 03:00:01;;;;;;;21.75;14.60;;;5.20;99.90;;;;;;2054447;28;20039;-72
2022/11/25 03:01:01;;;;;;;22.38;14.73;;;5.20;99.90;;;;;;2046478;28;20051;-72
2022/11/25 03:02:03;;;;;;;23.42;15.13;;;5.20;99.90;;;;;;2054322;28;20043;-72
2022/11/25 03:03:04;;;;;;;21.23;14.32;;;5.20;99.90;;;;;;2054345;28;20093;-72
2022/11/25 03:04:05;;;;;;;22.52;15.02;;;5.20;99.90;;;;;;2046410;28;20167;-72
2022/11/25 03:05:06;;;;;;;22.35;14.68;;;5.20;99.90;;;;;;2046599;28;20449;-72
2022/11/25 03:06:08;;;;;;;20.73;14.70;;;5.20;99.90;;;;;;2054442;28;20027;-71
2022/11/25 03:09:31;;;;;;;23.17;14.32;;;5.20;99.90;;;;;;2054940;28;20047;-71
2022/11/25 03:10:32;;;;;;;21.33;14.80;;;5.20;99.90;;;;;;2055213;28;20023;-71
2022/11/25 03:12:54;;;;;;;;;;;5.20;99.90;;;;;;2049797;28;20037;-71
2022/11/25 03:13:56;;;;;;;22.88;14.57;;;5.20;99.90;;;;;;2045909;28;19989;-71
2022/11/25 03:14:57;;;;;;;22.00;14.60;;;5.10;99.90;;;;;;2054341;28;20027;-72
2022/11/25 03:15:57;;;;;;;20.40;14.52;;;5.20;99.90;;;;;;2054505;28;20034;-71
2022/11/25 03:16:58;;;;;;;20.52;14.13;;;5.20;99.90;;;;;;2054288;28;20497;-71
2022/11/25 03:18:01;;;;;;;20.90;14.50;;;5.20;99.90;;;;;;2053913;28;20031;-71
2022/11/25 03:19:02;;;;;;;22.00;14.50;;;5.20;99.90;;;;;;2055400;28;20141;-71
2022/11/25 03:20:07;;;;;;;20.70;14.05;;;5.20;99.90;;;;;;2056013;28;20508;-71
2022/11/25 03:21:08;;;;;;;20.52;13.65;;;5.20;99.90;;;;;;2055831;28;20034;-71
2022/11/25 03:22:09;;;;;;;21.48;14.10;;;5.20;99.90;;;;;;2048103;28;20031;-71
2022/11/25 03:23:09;;;;;;;20.30;13.82;;;5.20;99.90;;;;;;2040108;28;20027;-71
2022/11/25 03:24:10;;;;;;;22.40;14.18;;;5.20;99.90;;;;;;2040259;29;20039;-71
2022/11/25 03:25:12;;;;;;;21.33;14.50;;;5.20;99.90;;;;;;2048227;29;20063;-71
2022/11/25 03:26:13;;;;;;;20.70;13.90;;;5.20;99.90;;;;;;2048252;28;20036;-71
2022/11/25 03:27:14;;;;;;;22.25;14.30;;;5.20;99.90;;;;;;2056083;28;20054;-71
2022/11/25 03:28:15;;;;;;;20.80;14.10;;;5.30;99.90;;;;;;2047915;28;20458;-71
2022/11/25 03:29:16;;;;;;;21.92;14.05;;;5.30;99.90;;;;;;2047943;28;20117;-71
2022/11/25 03:30:23;;;;;;;23.58;14.35;;;5.30;99.90;;;;;;2056010;28;20038;-71
2022/11/25 03:31:26;;;;;;;21.33;14.27;;;5.30;99.90;;;;;;2049251;28;20043;-71
2022/11/25 03:32:27;;;;;;;21.05;14.18;;;5.30;99.90;;;;;;2056115;28;20027;-71
2022/11/25 03:33:28;;;;;;;22.95;14.32;;;5.30;99.90;;;;;;2056006;28;20117;-71
2022/11/25 03:34:30;;;;;;;21.77;14.25;;;5.30;99.90;;;;;;2048024;28;20030;-71
2022/11/25 03:35:31;;;;;;;19.90;13.85;;;5.30;99.90;;;;;;2055956;28;20019;-71
2022/11/25 03:36:31;;;;;;;21.55;14.48;;;5.30;99.90;;;;;;2048049;28;20027;-71
2022/11/25 03:37:32;;;;;;;19.88;13.75;;;5.30;99.90;;;;;;2055799;28;20493;-71
2022/11/25 03:38:33;;;;;;;20.20;13.73;;;5.30;99.90;;;;;;2056741;28;20019;-71
2022/11/25 03:39:35;;;;;;;20.58;13.73;;;5.30;99.90;;;;;;2055836;28;20037;-71
2022/11/25 03:40:36;;;;;;;19.65;13.73;;;5.30;99.90;;;;;;2047823;28;20035;-71
2022/11/25 03:41:36;;;;;;;18.75;14.07;;;5.30;99.90;;;;;;2055670;28;20417;-71
2022/11/25 03:42:37;;;;;;;19.75;13.65;;;5.30;99.90;;;;;;2055798;28;20026;-71
2022/11/25 03:43:39;;;;;;;19.83;13.50;;;5.30;99.90;;;;;;2048203;28;20102;-71
2022/11/25 03:44:40;;;;;;;20.38;13.73;;;5.30;99.90;;;;;;2055878;28;20074;-71
2022/11/25 03:45:41;;;;;;;19.23;13.48;;;5.30;99.90;;;;;;2047962;28;20050;-71
2022/11/25 03:46:43;;;;;;;19.80;14.10;;;5.30;99.90;;;;;;2040231;28;20034;-71
2022/11/25 03:47:44;;;;;;;20.58;13.80;;;5.30;99.90;;;;;;2055488;28;20134;-72
2022/11/25 03:48:45;;;;;;;20.88;14.23;;;5.30;99.90;;;;;;2055770;28;20035;-72
2022/11/25 03:49:47;;;;;;;21.58;14.70;;;5.30;99.90;;;;;;2055701;28;20026;-72
2022/11/25 03:50:48;;;;;;;19.70;13.57;;;5.30;99.90;;;;;;2047839;29;20036;-72
2022/11/25 03:51:49;;;;;;;18.83;13.68;;;5.30;99.90;;;;;;2055979;28;20058;-71
2022/11/25 03:52:51;;;;;;;20.15;13.38;;;5.30;99.90;;;;;;2048038;28;20166;-71
2022/11/25 03:53:53;;;;;;;19.08;13.70;;;5.30;99.90;;;;;;2048367;28;20505;-72
2022/11/25 03:54:54;;;;;;;19.80;13.15;;;5.30;99.90;;;;;;2047631;29;20117;-71
2022/11/25 03:55:58;;;;;;;20.48;13.60;;;5.30;99.90;;;;;;2051647;28;20020;-71
2022/11/25 03:56:59;;;;;;;20.00;13.50;;;5.30;99.90;;;;;;2051410;28;20019;-71
2022/11/25 03:58:00;;;;;;;18.98;13.43;;;5.30;99.90;;;;;;2049178;28;20039;-71
2022/11/25 03:59:01;;;;;;;18.50;12.85;;;5.30;99.90;;;;;;2049101;28;20644;-72
2022/11/25 04:00:03;;;;;;;17.02;13.00;;;5.30;99.90;;;;;;2048710;28;20035;-71
2022/11/25 04:01:18;;;;;;;19.77;13.45;;;5.30;99.90;;;;;;2056572;28;20123;-72
2022/11/25 04:02:20;;;;;;;19.83;13.38;;;5.30;99.90;;;;;;2056271;28;20201;-71
2022/11/25 04:03:22;;;;;;;19.35;13.27;;;5.30;99.90;;;;;;2048303;28;20034;-71
2022/11/25 04:04:23;;;;;;;19.20;13.88;;;5.30;99.90;;;;;;2056247;28;20184;-72
2022/11/25 04:05:24;;;;;;;19.40;13.80;;;5.30;99.90;;;;;;2056957;28;20852;-72
2022/11/25 04:06:25;;;;;;;18.75;13.50;;;5.30;99.90;;;;;;2056666;28;20053;-72
2022/11/25 04:07:27;;;;;;;20.13;13.80;;;5.30;99.90;;;;;;2055474;28;20061;-72
2022/11/25 04:08:30;;;;;;;19.45;13.68;;;5.30;99.90;;;;;;2047931;28;20023;-71
2022/11/25 04:09:32;;;;;;;20.38;14.20;;;5.30;99.90;;;;;;2055792;28;20027;-72
2022/11/25 04:10:34;;;;;;;21.42;14.55;;;5.30;99.90;;;;;;2055324;28;20041;-73
2022/11/25 04:12:54;;;;;;;19.80;13.80;;;5.30;99.90;;;;;;2042156;28;20028;-71
2022/11/25 04:14:00;;;;;;;20.15;14.20;;;5.30;99.90;;;;;;2052932;28;20129;-69
2022/11/25 04:15:01;;;;;;;21.15;14.27;;;5.30;99.90;;;;;;2055596;28;20039;-70
2022/11/25 04:16:02;;;;;;;21.13;14.52;;;5.30;99.90;;;;;;2047685;28;20609;-70
2022/11/25 04:17:04;;;;;;;23.23;14.90;;;5.30;99.90;;;;;;2047861;28;20019;-71
2022/11/25 04:18:05;;;;;;;20.48;14.60;;;5.30;99.90;;;;;;2047402;28;20023;-70
2022/11/25 04:19:06;;;;;;;20.85;14.52;;;5.30;99.90;;;;;;2047715;28;20653;-70
2022/11/25 04:20:08;;;;;;;20.20;14.13;;;5.30;99.90;;;;;;2047652;28;20055;-70
2022/11/25 04:21:09;;;;;;;23.00;16.08;;;5.30;99.90;;;;;;2047942;28;20023;-70
2022/11/25 04:22:10;;;;;;;24.98;16.00;;;5.30;99.90;;;;;;2055927;28;20789;-71
2022/11/25 04:23:13;;;;;;;21.35;15.57;;;5.30;99.90;;;;;;2055904;28;20023;-70
2022/11/25 04:24:22;;;;;;;21.83;15.52;;;5.30;99.90;;;;;;2048948;28;20038;-71
2022/11/25 04:25:23;;;;;;;20.83;15.02;;;5.30;99.90;;;;;;2055656;28;20035;-70
2022/11/25 04:26:24;;;;;;;20.48;14.63;;;5.30;99.90;;;;;;2056813;28;20355;-70
2022/11/25 04:27:25;;;;;;;20.55;14.63;;;5.30;99.90;;;;;;2055662;28;20098;-69
2022/11/25 04:28:27;;;;;;;22.23;15.60;;;5.30;99.90;;;;;;2047859;28;20023;-70
2022/11/25 04:29:28;;;;;;;23.05;15.88;;;5.30;99.90;;;;;;2047709;28;20030;-71
2022/11/25 04:30:30;;;;;;;21.55;15.05;;;5.30;99.90;;;;;;2046383;28;20035;-71
2022/11/25 04:31:31;;;;;;;22.33;16.20;;;5.30;99.90;;;;;;2039882;29;20026;-72
2022/11/25 04:32:31;;;;;;;19.98;15.13;;;5.40;99.90;;;;;;2048066;29;20567;-71
2022/11/25 04:33:32;;;;;;;24.55;16.35;;;5.30;99.90;;;;;;2055692;28;20027;-69
2022/11/25 04:34:33;;;;;;;23.63;15.73;;;5.30;99.90;;;;;;2047682;28;20027;-71
2022/11/25 04:35:34;;;;;;;20.30;15.30;;;5.30;99.90;;;;;;2047922;28;20506;-69
2022/11/25 04:36:35;;;;;;;22.35;15.80;;;5.30;99.90;;;;;;2047782;28;20039;-69
2022/11/25 04:37:36;;;;;;;21.20;14.85;;;5.30;99.90;;;;;;2047154;28;20027;-69
2022/11/25 04:38:37;;;;;;;21.58;15.00;;;5.30;99.90;;;;;;2047588;28;20034;-69
2022/11/25 04:39:39;;;;;;;20.27;14.25;;;5.30;99.90;;;;;;2047696;28;20060;-69
2022/11/25 04:40:46;;;;;;;19.05;14.05;;;5.30;99.90;;;;;;2048238;28;20513;-70
2022/11/25 04:42:30;;;;;;;20.17;13.65;;;5.30;99.90;;;;;;2048194;28;20453;-71
2022/11/25 04:43:11;;;;;;;21.98;14.30;;;5.30;99.90;;;;;;2050339;28;20038;-70
2022/11/25 04:44:18;;;;;;;20.33;13.93;;;5.30;99.90;;;;;;2048213;28;20466;-69
2022/11/25 04:45:19;;;;;;;19.08;13.00;;;5.30;99.90;;;;;;2047741;29;20032;-69
2022/11/25 04:46:24;;;;;;;20.63;13.73;;;5.30;99.90;;;;;;2047604;28;20053;-69
2022/11/25 04:47:25;;;;;;;20.15;12.88;;;5.30;99.90;;;;;;2047050;28;20050;-69
2022/11/25 04:48:26;;;;;;;18.38;12.77;;;5.30;99.90;;;;;;2039516;29;20521;-69
2022/11/25 04:49:26;;;;;;;17.70;12.82;;;5.30;99.90;;;;;;2047490;29;20867;-69
2022/11/25 04:50:27;;;;;;;18.73;12.90;;;5.30;99.90;;;;;;2047592;28;20035;-69
2022/11/25 04:51:39;;;;;;;16.95;12.52;;;5.30;99.90;;;;;;2055252;28;20037;-69
2022/11/25 04:52:40;;;;;;;17.17;12.40;;;5.30;99.90;;;;;;2047327;28;20023;-70
2022/11/25 04:53:42;;;;;;;17.75;12.43;;;5.30;99.90;;;;;;2047373;28;20097;-71
2022/11/25 04:54:45;;;;;;;17.10;12.43;;;5.30;99.90;;;;;;2047637;28;20061;-71
2022/11/25 04:55:46;;;;;;;18.67;12.88;;;5.30;99.90;;;;;;2047541;28;20122;-72
2022/11/25 04:56:49;;;;;;;19.88;13.40;;;5.30;99.90;;;;;;2047451;29;20106;-71
2022/11/25 04:57:51;;;;;;;19.48;12.88;;;5.30;99.90;;;;;;2039324;29;20665;-70
2022/11/25 05:00:20;;;;;;;21.13;13.98;;;5.30;99.90;;;;;;2050969;28;20567;-69
2022/11/25 05:01:21;;;;;;;19.25;13.75;;;5.20;99.90;;;;;;2047331;28;20043;-70
2022/11/25 05:02:26;;;;;;;18.63;13.05;;;5.20;99.90;;;;;;2055526;28;20146;-69
2022/11/25 05:03:34;;;;;;;21.42;14.70;;;5.20;99.90;;;;;;2047711;29;20911;-70
2022/11/25 05:04:35;;;;;;;20.90;14.10;;;5.20;99.90;;;;;;2040502;29;20122;-70
2022/11/25 05:05:38;;;;;;;20.77;14.30;;;5.20;99.90;;;;;;2055333;28;20446;-71
2022/11/25 05:06:38;;;;;;;20.73;14.30;;;5.20;99.90;;;;;;2055592;28;20133;-71
2022/11/25 05:07:40;;;;;;;21.42;14.57;;;5.10;99.90;;;;;;2054905;28;20034;-71
2022/11/25 05:08:41;;;;;;;19.35;13.50;;;5.10;99.90;;;;;;2055109;28;20061;-71
2022/11/25 05:09:42;;;;;;;22.23;14.85;;;5.10;99.90;;;;;;2054230;28;20500;-71
2022/11/25 05:10:50;;;;;;;20.08;13.93;;;5.10;99.90;;;;;;2040221;29;20027;-70
2022/11/25 05:11:51;;;;;;;20.85;14.85;;;5.00;99.90;;;;;;2039408;29;20036;-70
2022/11/25 05:12:52;;;;;;;21.65;14.60;;;5.00;99.90;;;;;;2039579;29;20038;-70
2022/11/25 05:13:55;;;;;;;19.90;13.73;;;5.00;99.90;;;;;;2047129;28;20387;-71
2022/11/25 05:14:57;;;;;;;20.42;13.80;;;5.00;99.90;;;;;;2047438;29;20159;-71
2022/11/25 05:15:59;;;;;;;21.25;14.60;;;4.90;99.90;;;;;;2047483;28;20033;-70
2022/11/25 05:17:04;;;;;;;20.77;14.18;;;4.90;99.90;;;;;;2039676;29;20099;-70
2022/11/25 05:18:05;;;;;;;21.02;14.15;;;4.90;99.90;;;;;;2039882;29;20083;-70
2022/11/25 05:19:23;;;;;;;21.80;14.23;;;4.80;99.90;;;;;;2042022;29;20079;-70
2022/11/25 05:20:25;;;;;;;24.60;15.82;;;4.70;99.90;;;;;;2039676;29;20406;-70
2022/11/25 05:21:26;;;;;;;21.35;14.55;;;4.70;99.90;;;;;;2039525;29;20098;-71
2022/11/25 05:22:30;;;;;;;20.83;13.95;;;4.70;99.90;;;;;;2039469;29;20027;-70
2022/11/25 05:23:31;;;;;;;21.58;15.20;;;4.60;99.90;;;;;;2039722;29;20046;-72
2022/11/25 05:24:33;;;;;;;20.92;14.45;;;4.50;99.90;;;;;;2039398;29;20047;-71
2022/11/25 05:25:33;;;;;;;21.27;14.45;;;4.50;99.90;;;;;;2039003;29;20103;-70
2022/11/25 05:26:55;;;;;;;23.25;15.40;;;4.50;99.90;;;;;;2042211;29;20118;-70
2022/11/25 05:27:56;;;;;;;32.35;19.38;;;4.50;99.90;;;;;;2039031;29;20036;-70
2022/11/25 05:28:57;;;;;;;35.60;19.90;;;4.40;99.90;;;;;;2039251;29;20023;-70
2022/11/25 05:29:58;;;;;;;32.58;18.92;;;4.40;99.90;;;;;;2031295;29;20043;-71
2022/11/25 05:30:59;;;;;;;30.33;18.52;;;4.40;99.90;;;;;;2039270;29;20024;-71
2022/11/25 05:31:59;;;;;;;28.92;17.58;;;4.30;99.90;;;;;;2047155;28;20027;-70
2022/11/25 05:33:00;;;;;;;28.58;18.27;;;4.30;99.90;;;;;;2039300;29;20036;-70